createdAt,value
2022-08-07T00:00:18.732Z,54.52
2022-08-07T00:02:47.880Z,54.91
2022-08-07T00:05:30.914Z,55.03
2022-08-07T00:08:02.345Z,54.06
2022-08-07T00:10:34.369Z,54.46
2022-08-07T00:13:23.972Z,54.00
2022-08-07T00:15:54.858Z,53.78
2022-08-07T00:18:28.495Z,54.21
2022-08-07T00:21:08.147Z,54.43
2022-08-07T00:23:52.269Z,54.30
2022-08-07T00:26:49.074Z,54.18
2022-08-07T00:29:16.354Z,54.46
2022-08-07T00:31:46.344Z,54.88
2022-08-07T00:34:22.935Z,55.25
2022-08-07T00:36:54.200Z,55.42
2022-08-07T00:39:22.667Z,55.69
2022-08-07T00:42:09.149Z,56.10
2022-08-07T00:44:41.365Z,56.49
2022-08-07T00:47:15.809Z,56.42
2022-08-07T00:50:18.944Z,55.94
2022-08-07T00:52:51.020Z,56.46
2022-08-07T00:55:39.770Z,56.86
2022-08-07T00:58:10.430Z,57.18
2022-08-07T01:00:39.226Z,56.77
2022-08-07T01:03:55.394Z,57.33
2022-08-07T01:06:22.930Z,57.29
2022-08-07T01:08:53.270Z,57.13
2022-08-07T01:12:23.617Z,56.73
2022-08-07T01:14:28.435Z,56.71
2022-08-07T01:17:07.175Z,57.47
2022-08-07T01:19:38.460Z,57.54
2022-08-07T01:22:09.038Z,57.60
2022-08-07T01:25:54.930Z,57.64
2022-08-07T01:28:05.023Z,57.33
2022-08-07T01:30:34.451Z,57.45
2022-08-07T01:33:03.872Z,57.37
2022-08-07T01:35:53.783Z,57.26
2022-08-07T01:38:25.737Z,57.16
2022-08-07T01:41:01.227Z,57.41
2022-08-07T01:43:58.826Z,56.98
2022-08-07T01:46:31.286Z,57.40
2022-08-07T01:49:03.690Z,57.61
2022-08-07T01:52:03.795Z,57.39
2022-08-07T01:54:32.897Z,57.84
2022-08-07T01:57:30.887Z,58.07
2022-08-07T02:00:13.275Z,57.06
2022-08-07T02:03:19.135Z,57.90
2022-08-07T02:06:30.825Z,58.44
2022-08-07T02:09:07.997Z,58.43
2022-08-07T02:12:04.194Z,58.83
2022-08-07T02:14:40.984Z,57.90
2022-08-07T02:17:11.932Z,57.32
2022-08-07T02:20:05.402Z,57.39
2022-08-07T02:22:43.856Z,57.10
2022-08-07T02:25:17.711Z,56.24
2022-08-07T02:27:52.081Z,57.73
2022-08-07T02:30:22.365Z,56.63
2022-08-07T02:33:00.451Z,57.72
2022-08-07T02:36:28.807Z,58.79
2022-08-07T02:38:36.631Z,58.90
2022-08-07T02:41:06.036Z,56.35
2022-08-07T02:43:43.288Z,56.46
2022-08-07T02:46:17.499Z,57.91
2022-08-07T02:49:06.880Z,58.34
2022-08-07T02:51:42.587Z,58.80
2022-08-07T02:54:42.370Z,58.93
2022-08-07T02:57:15.161Z,58.07
2022-08-07T02:59:55.158Z,56.76
2022-08-07T03:02:30.483Z,57.22
2022-08-07T03:05:07.273Z,56.82
2022-08-07T03:08:05.433Z,56.53
2022-08-07T03:10:26.562Z,57.79
2022-08-07T03:12:56.649Z,59.07
2022-08-07T03:15:30.366Z,56.99
2022-08-07T03:18:20.261Z,56.81
2022-08-07T03:20:53.666Z,56.66
2022-08-07T03:23:33.662Z,58.97
2022-08-07T03:26:20.943Z,58.71
2022-08-07T03:29:11.444Z,58.17
2022-08-07T03:31:46.247Z,57.79
2022-08-07T03:34:22.490Z,57.81
2022-08-07T03:37:21.739Z,58.32
2022-08-07T03:40:18.807Z,60.01
2022-08-07T03:43:13.572Z,58.30
2022-08-07T03:45:57.340Z,57.63
2022-08-07T03:48:30.628Z,57.98
2022-08-07T03:51:02.066Z,58.57
2022-08-07T03:54:05.566Z,57.94
2022-08-07T03:56:33.235Z,58.41
2022-08-07T03:59:12.949Z,58.94
2022-08-07T04:01:45.343Z,58.92
2022-08-07T04:04:37.987Z,58.54
2022-08-07T04:07:17.337Z,59.10
2022-08-07T04:09:57.974Z,58.79
2022-08-07T04:12:32.985Z,58.87
2022-08-07T04:15:04.995Z,58.99
2022-08-07T04:18:57.024Z,59.03
2022-08-07T04:20:30.813Z,59.00
2022-08-07T04:23:01.854Z,59.08
2022-08-07T04:25:52.337Z,59.46
2022-08-07T04:28:21.869Z,59.97
2022-08-07T04:30:56.810Z,59.79
2022-08-07T04:33:27.833Z,60.35
2022-08-07T04:35:57.960Z,61.21
2022-08-07T04:38:28.310Z,61.65
2022-08-07T04:40:57.884Z,62.13
2022-08-07T04:44:10.130Z,62.77
2022-08-07T04:47:03.845Z,62.84
2022-08-07T04:49:42.587Z,62.73
2022-08-07T04:52:32.833Z,63.12
2022-08-07T04:55:15.648Z,63.33
2022-08-07T04:58:47.520Z,63.59
2022-08-07T05:01:52.246Z,63.95
2022-08-07T05:04:47.304Z,63.73
2022-08-07T05:07:36.654Z,64.01
2022-08-07T05:10:15.493Z,64.27
2022-08-07T05:13:01.843Z,64.40
2022-08-07T05:15:53.585Z,64.94
2022-08-07T05:18:29.792Z,64.83
2022-08-07T05:21:03.994Z,65.34
2022-08-07T05:23:43.178Z,65.77
2022-08-07T05:26:35.839Z,65.67
2022-08-07T05:29:09.566Z,65.53
2022-08-07T05:31:47.496Z,65.94
2022-08-07T05:34:26.307Z,66.21
2022-08-07T05:37:10.610Z,66.16
2022-08-07T05:40:14.071Z,66.31
2022-08-07T05:42:34.367Z,66.43
2022-08-07T05:45:47.652Z,66.55
2022-08-07T05:48:18.393Z,66.69
2022-08-07T05:51:03.555Z,66.79
2022-08-07T05:54:12.053Z,67.23
2022-08-07T05:56:26.908Z,67.29
2022-08-07T05:59:02.331Z,67.11
2022-08-07T06:01:36.785Z,67.09
2022-08-07T06:04:09.633Z,67.06
2022-08-07T06:06:38.367Z,66.90
2022-08-07T06:09:18.031Z,66.46
2022-08-07T06:11:49.578Z,65.96
2022-08-07T06:14:21.320Z,66.08
2022-08-07T06:17:07.482Z,66.00
2022-08-07T06:19:51.906Z,65.69
2022-08-07T06:22:38.515Z,65.53
2022-08-07T06:25:10.179Z,65.75
2022-08-07T06:27:44.351Z,65.81
2022-08-07T06:30:32.145Z,65.60
2022-08-07T06:33:15.965Z,65.59
2022-08-07T06:35:48.094Z,65.48
2022-08-07T06:38:37.888Z,65.58
2022-08-07T06:42:00.504Z,65.91
2022-08-07T06:44:14.104Z,65.76
2022-08-07T06:46:53.287Z,65.60
2022-08-07T06:49:51.599Z,65.51
2022-08-07T06:52:31.242Z,65.57
2022-08-07T06:55:32.640Z,65.56
2022-08-07T06:58:13.439Z,65.88
2022-08-07T07:00:47.295Z,65.69
2022-08-07T07:03:39.589Z,65.92
2022-08-07T07:06:23.806Z,65.94
2022-08-07T07:09:25.263Z,65.64
2022-08-07T07:12:15.507Z,66.08
2022-08-07T07:15:09.098Z,66.91
2022-08-07T07:18:10.745Z,67.44
2022-08-07T07:20:50.200Z,67.93
2022-08-07T07:24:09.998Z,67.83
2022-08-07T07:26:35.282Z,68.52
2022-08-07T07:29:39.770Z,68.68
2022-08-07T07:32:14.599Z,68.97
2022-08-07T07:34:48.574Z,69.31
2022-08-07T07:37:22.054Z,69.16
2022-08-07T07:40:16.945Z,68.84
2022-08-07T07:42:53.735Z,68.83
2022-08-07T07:46:36.870Z,69.11
2022-08-07T07:48:35.019Z,68.69
2022-08-07T07:51:08.954Z,68.69
2022-08-07T07:53:52.621Z,68.52
2022-08-07T07:56:36.315Z,68.71
2022-08-07T07:59:08.407Z,68.23
2022-08-07T08:02:03.812Z,68.19
2022-08-07T08:04:32.296Z,68.39
2022-08-07T08:07:07.667Z,68.50
2022-08-07T08:09:51.776Z,68.07
2022-08-07T08:12:50.351Z,68.81
2022-08-07T08:15:15.478Z,68.86
2022-08-07T08:17:58.169Z,68.88
2022-08-07T08:20:37.119Z,68.43
2022-08-07T08:23:30.524Z,68.37
2022-08-07T08:26:31.841Z,68.36
2022-08-07T08:29:08.317Z,68.17
2022-08-07T08:32:17.338Z,68.23
2022-08-07T08:34:31.845Z,68.25
2022-08-07T08:38:00.738Z,67.96
2022-08-07T08:40:23.523Z,68.30
2022-08-07T08:43:06.096Z,68.11
2022-08-07T08:46:38.382Z,68.00
2022-08-07T08:49:57.230Z,68.17
2022-08-07T08:52:53.561Z,68.01
2022-08-07T08:56:06.393Z,68.28
2022-08-07T08:59:13.611Z,68.57
2022-08-07T09:02:08.969Z,68.52
2022-08-07T09:05:06.512Z,68.71
2022-08-07T09:08:28.109Z,68.80
2022-08-07T09:11:53.296Z,68.50
2022-08-07T09:16:23.872Z,68.58
2022-08-07T09:18:07.133Z,68.61
2022-08-07T09:20:58.448Z,68.86
2022-08-07T09:24:33.139Z,69.12
2022-08-07T09:28:00.810Z,69.75
2022-08-07T09:30:55.964Z,69.84
2022-08-07T09:33:57.703Z,70.59
2022-08-07T09:37:13.244Z,70.47
2022-08-07T09:40:33.315Z,70.11
2022-08-07T09:43:14.663Z,70.21
2022-08-07T09:47:50.660Z,70.49
2022-08-07T09:50:00.697Z,70.83
2022-08-07T09:52:51.670Z,70.37
2022-08-07T09:56:02.728Z,70.31
2022-08-07T09:58:48.822Z,70.41
2022-08-07T10:01:55.456Z,70.89
2022-08-07T10:04:33.640Z,71.63
2022-08-07T10:07:25.842Z,71.50
2022-08-07T10:11:00.250Z,71.41
2022-08-07T10:14:00.303Z,72.23
2022-08-07T10:16:39.739Z,72.19
2022-08-07T10:19:38.806Z,71.87
2022-08-07T10:22:33.827Z,71.80
2022-08-07T10:25:22.619Z,72.51
2022-08-07T10:28:24.784Z,72.12
2022-08-07T10:31:51.708Z,71.73
2022-08-07T10:34:38.631Z,71.68
2022-08-07T10:37:48.990Z,71.13
2022-08-07T10:41:08.935Z,70.91
2022-08-07T10:44:33.814Z,70.82
2022-08-07T10:47:52.565Z,71.13
2022-08-07T10:51:00.017Z,71.05
2022-08-07T10:54:14.572Z,70.77
2022-08-07T10:57:11.556Z,71.50
2022-08-07T11:00:08.940Z,71.25
2022-08-07T11:03:15.844Z,70.96
2022-08-07T11:06:11.604Z,70.92
2022-08-07T11:09:11.415Z,71.22
2022-08-07T11:12:07.692Z,71.46
2022-08-07T11:14:57.522Z,72.02
2022-08-07T11:18:12.601Z,71.64
2022-08-07T11:20:55.711Z,71.66
2022-08-07T11:24:03.273Z,72.29
2022-08-07T11:27:08.681Z,71.30
2022-08-07T11:30:17.732Z,71.38
2022-08-07T11:33:14.296Z,71.34
2022-08-07T11:36:13.370Z,71.33
2022-08-07T11:39:14.517Z,71.82
2022-08-07T11:42:19.564Z,71.97
2022-08-07T11:45:20.733Z,71.62
2022-08-07T11:48:29.394Z,71.93
2022-08-07T11:51:22.869Z,72.84
2022-08-07T11:54:39.712Z,72.30
2022-08-07T11:58:00.748Z,72.14
2022-08-07T12:00:36.958Z,72.26
2022-08-07T12:03:41.998Z,72.98
2022-08-07T12:06:51.478Z,72.53
2022-08-07T12:09:31.744Z,73.19
2022-08-07T12:12:13.524Z,72.49
2022-08-07T12:15:01.154Z,73.02
2022-08-07T12:17:55.960Z,72.58
2022-08-07T12:21:09.453Z,72.41
2022-08-07T12:24:07.483Z,72.86
2022-08-07T12:27:14.910Z,72.09
2022-08-07T12:30:05.830Z,72.21
2022-08-07T12:32:49.584Z,72.22
2022-08-07T12:35:21.240Z,72.37
2022-08-07T12:38:10.776Z,72.09
2022-08-07T12:40:51.233Z,71.62
2022-08-07T12:44:03.434Z,71.13
2022-08-07T12:46:46.250Z,71.25
2022-08-07T12:49:53.790Z,71.38
2022-08-07T12:53:05.273Z,71.56
2022-08-07T12:56:02.471Z,73.18
2022-08-07T12:58:40.369Z,73.71
2022-08-07T13:01:32.770Z,73.46
2022-08-07T13:04:32.634Z,73.50
2022-08-07T13:08:14.553Z,74.44
2022-08-07T13:10:39.277Z,74.87
2022-08-07T13:13:48.323Z,74.60
2022-08-07T13:16:26.831Z,74.63
2022-08-07T13:19:05.008Z,74.50
2022-08-07T13:22:12.783Z,73.39
2022-08-07T13:25:32.374Z,72.59
2022-08-07T13:28:14.359Z,72.90
2022-08-07T13:31:46.011Z,72.87
2022-08-07T13:35:11.156Z,73.39
2022-08-07T13:38:09.314Z,73.36
2022-08-07T13:41:14.682Z,73.42
2022-08-07T13:44:10.667Z,73.94
2022-08-07T13:47:04.754Z,74.21
2022-08-07T13:50:35.436Z,74.29
2022-08-07T13:56:08.841Z,74.45
2022-08-07T14:20:43.382Z,70.45
2022-08-07T14:22:36.099Z,70.82
2022-08-07T14:25:39.337Z,71.19
2022-08-07T14:28:13.635Z,71.12
2022-08-07T14:31:42.353Z,71.08
2022-08-07T14:37:16.507Z,71.24
2022-08-07T14:40:15.936Z,71.11
2022-08-07T14:54:08.893Z,70.64
2022-08-07T14:56:32.840Z,70.42
2022-08-07T14:59:13.872Z,70.44
2022-08-07T15:02:32.945Z,70.16
2022-08-07T15:05:31.751Z,69.92
2022-08-07T15:08:35.080Z,69.57
2022-08-07T15:11:50.865Z,69.54
2022-08-07T15:14:33.777Z,69.58
2022-08-07T15:22:04.695Z,70.32
2022-08-07T15:25:15.716Z,70.28
2022-08-07T15:28:33.093Z,70.37
2022-08-07T15:31:06.513Z,69.76
2022-08-07T15:33:37.194Z,69.44
2022-08-07T15:36:09.997Z,69.24
2022-08-07T15:38:51.953Z,69.08
2022-08-07T15:42:44.164Z,68.63
2022-08-07T15:48:32.764Z,68.38
2022-08-07T15:54:39.712Z,68.26
2022-08-07T15:57:48.123Z,68.22
2022-08-07T16:00:33.587Z,68.35
2022-08-07T16:03:47.491Z,68.38
2022-08-07T16:06:50.090Z,67.95
2022-08-07T16:09:22.726Z,68.21
2022-08-07T16:12:39.259Z,67.97
2022-08-07T16:15:55.146Z,67.25
2022-08-07T16:18:54.477Z,65.70
2022-08-07T16:22:01.488Z,66.73
2022-08-07T16:24:52.303Z,67.03
2022-08-07T16:28:02.921Z,65.00
2022-08-07T16:31:01.518Z,65.05
2022-08-07T16:34:03.122Z,63.96
2022-08-07T16:38:03.477Z,62.74
2022-08-07T16:40:57.549Z,63.53
2022-08-07T16:44:04.102Z,62.92
2022-08-07T16:47:51.265Z,61.65
2022-08-07T16:51:13.483Z,60.35
2022-08-07T16:54:02.946Z,60.55
2022-08-07T16:57:03.980Z,60.38
2022-08-07T17:00:31.241Z,58.98
2022-08-07T17:03:59.444Z,59.26
2022-08-07T17:07:03.329Z,58.45
2022-08-07T17:10:07.694Z,59.15
2022-08-07T17:12:46.185Z,60.03
2022-08-07T17:15:44.195Z,58.93
2022-08-07T17:18:33.109Z,58.68
2022-08-07T17:21:18.389Z,58.79
2022-08-07T17:24:23.433Z,58.78
2022-08-07T17:27:51.124Z,57.44
2022-08-07T17:32:52.005Z,56.30
2022-08-07T17:35:49.599Z,56.21
2022-08-07T17:38:33.077Z,55.89
2022-08-07T17:44:50.659Z,54.97
2022-08-07T17:47:44.376Z,53.75
2022-08-07T17:50:46.919Z,53.98
2022-08-07T17:54:06.559Z,54.53
2022-08-07T18:26:03.005Z,50.41
2022-08-07T18:34:01.328Z,50.09
2022-08-07T18:38:58.180Z,50.72
2022-08-07T19:28:56.656Z,49.25
2022-08-07T19:32:18.833Z,49.61
2022-08-07T19:35:11.917Z,50.13
2022-08-07T19:38:03.531Z,51.00
2022-08-07T19:40:49.891Z,52.26
2022-08-07T19:43:45.520Z,51.44
2022-08-07T19:47:03.358Z,52.16
2022-08-07T19:54:34.784Z,51.91
2022-08-07T19:57:52.282Z,52.90
2022-08-07T20:02:42.959Z,52.83
2022-08-07T20:06:15.518Z,53.67
2022-08-07T20:10:33.676Z,53.21
2022-08-07T20:12:32.308Z,53.66
2022-08-07T20:15:15.578Z,53.18
2022-08-07T20:18:01.418Z,53.93
2022-08-07T20:20:36.579Z,53.58
2022-08-07T20:23:23.054Z,53.38
2022-08-07T20:26:09.884Z,53.58
2022-08-07T20:28:53.362Z,54.42
2022-08-07T20:31:34.512Z,54.23
2022-08-07T20:34:07.963Z,54.43
2022-08-07T20:36:50.737Z,54.15
2022-08-07T20:40:02.487Z,53.11
2022-08-07T20:42:29.470Z,54.67
2022-08-07T20:45:02.157Z,53.38
2022-08-07T20:47:57.537Z,52.74
2022-08-07T20:50:30.587Z,52.93
2022-08-07T20:53:02.867Z,53.37
2022-08-07T20:55:38.705Z,52.46
2022-08-07T20:58:09.082Z,53.11
2022-08-07T21:01:01.144Z,53.49
2022-08-07T21:03:31.685Z,53.12
2022-08-07T21:06:21.460Z,53.62
2022-08-07T21:09:14.135Z,52.92
2022-08-07T21:11:50.990Z,53.37
2022-08-07T21:14:32.958Z,52.30
2022-08-07T21:18:28.587Z,52.80
2022-08-07T21:20:05.339Z,52.60
2022-08-07T21:22:44.927Z,51.59
2022-08-07T21:25:29.088Z,51.56
2022-08-07T21:28:48.112Z,51.55
2022-08-07T21:31:31.246Z,51.95
2022-08-07T21:34:48.596Z,51.01
2022-08-07T21:37:24.700Z,52.40
2022-08-07T21:40:19.017Z,50.47
2022-08-07T21:43:22.971Z,50.62
2022-08-07T21:46:24.508Z,49.93
2022-08-07T21:49:21.074Z,50.48
2022-08-07T21:52:17.749Z,53.09
2022-08-07T21:55:13.297Z,50.63
2022-08-07T21:58:12.102Z,51.74
2022-08-07T22:00:52.993Z,51.78
2022-08-07T22:03:31.650Z,50.75
2022-08-07T22:06:07.738Z,51.51
2022-08-07T22:09:07.417Z,49.40
2022-08-07T22:12:04.940Z,50.08
2022-08-07T22:15:00.039Z,49.82
2022-08-07T22:17:58.625Z,49.61
2022-08-07T22:20:36.111Z,50.00
2022-08-07T22:23:28.588Z,49.45
2022-08-07T22:26:44.684Z,49.45
2022-08-07T22:29:34.061Z,49.22
2022-08-07T22:32:35.391Z,49.44
2022-08-07T22:35:11.333Z,49.32
2022-08-07T22:38:12.175Z,49.42
2022-08-07T22:42:03.322Z,49.78
2022-08-07T22:44:58.412Z,50.10
2022-08-07T22:48:13.513Z,50.55
2022-08-07T22:51:36.550Z,50.68
2022-08-07T22:54:38.695Z,50.58
2022-08-07T22:57:18.670Z,50.76
2022-08-07T23:00:17.058Z,51.01
2022-08-07T23:02:48.370Z,51.06
2022-08-07T23:06:09.378Z,50.70
2022-08-07T23:08:23.916Z,51.26
2022-08-07T23:11:13.266Z,51.28
2022-08-07T23:14:16.084Z,51.65
2022-08-07T23:17:20.093Z,51.64
2022-08-07T23:20:51.245Z,51.71
2022-08-07T23:24:04.228Z,51.90
2022-08-07T23:26:36.341Z,52.43
2022-08-07T23:29:43.994Z,52.29
2022-08-07T23:34:35.499Z,52.63
2022-08-07T23:36:06.934Z,52.94
2022-08-07T23:38:44.695Z,52.84
2022-08-07T23:42:04.271Z,52.79
2022-08-07T23:44:53.108Z,53.17
2022-08-07T23:47:46.488Z,53.07
2022-08-07T23:50:55.378Z,53.30
2022-08-07T23:53:50.976Z,53.54
2022-08-07T23:56:38.813Z,53.84
